Haven, Kansas
Current Conditions -  °F | °C
As of 10:52 AM on Thursday 18 Dec 2014 (Local Time) from KHUT Reporting Station
Haze Haze  
Wind Chill: 33°   Ceiling: 500
Heat Index: 33°   Visibility: 6mi
Dew Point: 28°   Wind: 0mph
Humidity: 82%   Direction: NA
Pressure: 30.2"   Gusts: NA
Location:  37.9°N, 97.78°W
Report Text: KHUT 181652Z 00000KT 6SM HZ OVC005 01/M02 A3020 RMK AO2 SLP234 T00061022
Loading
Personal Weather Stations






























Interactive Weather Map New forecast layout! Learn more

10-Day Weather Forecast

Advertisements
Track Severe Weather on mobile